Time;durP1;ratioP1;P1;durP2;ratioP2;P2;SDS_P1;SDS_P2;PMS_P1;PMS_P2;Temp;Humidity;BMP_temperature;BMP_pressure;BME280_temperature;BME280_humidity;BME280_pressure;Samples;Min_cycle;Max_cycle;Signal;HPM_P1;HPM_P2
2021/08/22 00:01:53;;;;;;;2.22;1.30;;;19.10;80.50;;;;;;5062804;28;20124;-79
2021/08/22 00:04:19;;;;;;;2.35;1.27;;;19.10;80.60;;;;;;5065436;28;20025;-78
2021/08/22 00:06:45;;;;;;;4.20;1.70;;;19.10;81.10;;;;;;5057941;28;20112;-79
2021/08/22 00:09:11;;;;;;;1.50;1.17;;;19.10;81.10;;;;;;5057747;28;20115;-79
2021/08/22 00:11:36;;;;;;;2.75;1.40;;;19.10;81.20;;;;;;5059327;28;20032;-79
2021/08/22 00:14:02;;;;;;;2.03;1.35;;;19.10;81.00;;;;;;5077729;28;20036;-78
2021/08/22 00:16:28;;;;;;;2.38;1.05;;;19.00;80.80;;;;;;5065152;28;20033;-79
2021/08/22 00:18:54;;;;;;;1.48;1.17;;;19.10;80.70;;;;;;5057530;28;20029;-79
2021/08/22 00:21:19;;;;;;;2.20;1.38;;;19.10;80.70;;;;;;5057377;28;20032;-79
2021/08/22 00:23:45;;;;;;;2.40;1.42;;;19.00;80.60;;;;;;5073095;28;20483;-79
2021/08/22 00:26:11;;;;;;;2.15;1.50;;;19.00;80.60;;;;;;5056729;28;20075;-79
2021/08/22 00:28:36;;;;;;;2.72;1.45;;;18.90;80.70;;;;;;5060719;28;20382;-79
2021/08/22 00:31:02;;;;;;;2.15;1.33;;;18.90;80.70;;;;;;5076045;28;20033;-79
2021/08/22 00:33:28;;;;;;;2.10;1.30;;;18.80;80.70;;;;;;5077343;28;20029;-79
2021/08/22 00:35:53;;;;;;;1.52;1.25;;;18.80;80.80;;;;;;5076304;28;20025;-79
2021/08/22 00:38:19;;;;;;;2.58;1.40;;;18.80;80.60;;;;;;5057157;28;20025;-79
2021/08/22 00:40:48;;;;;;;2.97;1.48;;;18.70;80.70;;;;;;5064208;28;20113;-79
2021/08/22 00:43:14;;;;;;;3.67;1.40;;;18.60;80.80;;;;;;5077627;28;20350;-79
2021/08/22 00:45:41;;;;;;;1.98;1.38;;;18.60;80.90;;;;;;5067739;28;20121;-78
2021/08/22 00:48:07;;;;;;;2.33;1.58;;;18.60;80.80;;;;;;5056863;28;20021;-79
2021/08/22 00:50:33;;;;;;;2.38;1.30;;;18.50;80.90;;;;;;5056997;28;20072;-79
2021/08/22 00:53:03;;;;;;;2.25;1.40;;;18.50;80.90;;;;;;5057010;28;20052;-79
2021/08/22 00:55:29;;;;;;;2.20;1.63;;;18.50;81.00;;;;;;5056850;28;20021;-79
2021/08/22 00:57:55;;;;;;;1.58;1.30;;;18.40;80.90;;;;;;5056765;28;20454;-79
2021/08/22 01:00:21;;;;;;;2.97;1.40;;;18.40;80.80;;;;;;5056653;28;20079;-79
2021/08/22 01:02:58;;;;;;;3.45;1.42;;;18.30;80.80;;;;;;5056451;28;20025;-79
2021/08/22 01:05:55;;;;;;;1.73;1.50;;;18.30;80.80;;;;;;5056724;28;20025;-79
2021/08/22 01:08:25;;;;;;;1.80;1.30;;;18.30;80.70;;;;;;5070998;28;20024;-79
2021/08/22 01:11:02;;;;;;;2.25;1.50;;;18.30;80.70;;;;;;5076958;28;20429;-78
2021/08/22 01:13:33;;;;;;;2.55;1.60;;;18.30;80.50;;;;;;5076523;28;20036;-78
2021/08/22 01:16:01;;;;;;;2.15;1.40;;;18.30;80.40;;;;;;5067861;28;20101;-79
2021/08/22 01:18:28;;;;;;;2.05;1.40;;;18.30;80.40;;;;;;5056458;28;20032;-79
2021/08/22 01:21:17;;;;;;;1.98;1.42;;;18.30;80.40;;;;;;5056317;28;20025;-79
2021/08/22 01:23:48;;;;;;;1.63;1.45;;;18.30;80.20;;;;;;5056452;28;20356;-79
2021/08/22 01:26:17;;;;;;;2.35;1.45;;;18.30;80.00;;;;;;5073040;28;20020;-79
2021/08/22 01:28:43;;;;;;;2.80;1.65;;;18.30;79.90;;;;;;5076235;28;20020;-78
2021/08/22 01:31:15;;;;;;;2.58;1.30;;;18.20;80.00;;;;;;5070364;28;20028;-79
2021/08/22 01:33:59;;;;;;;2.40;1.45;;;18.10;80.00;;;;;;5056189;28;20063;-79
2021/08/22 01:36:25;;;;;;;2.22;1.40;;;18.00;79.90;;;;;;5055437;28;20021;-79
2021/08/22 01:39:12;;;;;;;2.10;1.52;;;18.00;80.10;;;;;;5056068;28;20453;-79
2021/08/22 01:41:39;;;;;;;1.77;1.20;;;17.90;80.20;;;;;;5068943;28;20129;-79
2021/08/22 01:44:06;;;;;;;2.22;1.58;;;17.80;80.30;;;;;;5076064;28;20055;-79
2021/08/22 01:46:33;;;;;;;2.35;1.42;;;17.80;80.40;;;;;;5056185;28;20041;-78
2021/08/22 01:49:02;;;;;;;3.30;1.40;;;17.80;80.20;;;;;;5055838;28;20024;-79
2021/08/22 01:51:29;;;;;;;3.72;1.65;;;17.70;80.20;;;;;;5055986;28;20083;-79
2021/08/22 01:54:07;;;;;;;1.80;1.50;;;17.70;80.10;;;;;;5075817;28;20028;-78
2021/08/22 01:56:34;;;;;;;2.80;1.35;;;17.70;80.00;;;;;;5061172;28;20464;-79
2021/08/22 01:59:01;;;;;;;1.85;1.52;;;17.60;80.10;;;;;;5055754;28;20056;-79
2021/08/22 02:01:27;;;;;;;2.85;1.60;;;17.60;80.30;;;;;;5055417;28;20021;-79
2021/08/22 02:04:03;;;;;;;2.20;1.52;;;17.50;80.20;;;;;;5055623;28;20103;-78
2021/08/22 02:06:54;;;;;;;2.10;1.45;;;17.50;80.20;;;;;;5055535;28;20453;-79
2021/08/22 02:09:25;;;;;;;2.25;1.63;;;17.50;80.30;;;;;;5055806;28;20029;-79
2021/08/22 02:12:06;;;;;;;2.10;1.70;;;17.40;80.20;;;;;;5055625;28;20025;-79
2021/08/22 02:14:36;;;;;;;2.95;1.98;;;17.40;80.00;;;;;;5069064;28;20028;-79
2021/08/22 02:17:03;;;;;;;3.75;1.52;;;17.40;79.90;;;;;;5075686;28;20073;-78
2021/08/22 02:19:30;;;;;;;2.22;1.60;;;17.30;80.00;;;;;;5075423;28;20028;-79
2021/08/22 02:21:57;;;;;;;2.40;1.60;;;17.30;80.10;;;;;;5075271;28;20142;-79
2021/08/22 02:24:47;;;;;;;2.20;1.60;;;17.30;79.90;;;;;;5054792;28;20103;-79
2021/08/22 02:27:12;;;;;;;2.95;1.60;;;17.30;80.00;;;;;;5055082;28;20029;-79
2021/08/22 02:29:49;;;;;;;2.35;1.58;;;17.30;79.90;;;;;;5055150;28;20021;-79
2021/08/22 02:32:15;;;;;;;2.15;1.70;;;17.30;79.90;;;;;;5055463;28;20074;-78
2021/08/22 02:34:41;;;;;;;1.70;1.50;;;17.20;79.90;;;;;;5055198;28;20036;-79
2021/08/22 02:37:07;;;;;;;1.92;1.42;;;17.20;80.00;;;;;;5055286;28;20058;-79
2021/08/22 02:39:33;;;;;;;4.53;1.80;;;17.20;79.80;;;;;;5054975;28;20029;-78
2021/08/22 02:41:58;;;;;;;3.22;1.80;;;17.10;80.10;;;;;;5072379;28;20040;-79
2021/08/22 02:44:24;;;;;;;3.28;1.77;;;17.10;80.20;;;;;;5075299;28;20558;-79
2021/08/22 02:46:50;;;;;;;2.55;1.45;;;17.00;80.00;;;;;;5074864;28;20547;-78
2021/08/22 02:49:15;;;;;;;2.15;1.58;;;17.00;80.00;;;;;;5058048;28;20491;-78
2021/08/22 02:51:41;;;;;;;2.35;1.40;;;17.00;80.20;;;;;;5059246;28;20035;-79
2021/08/22 02:54:07;;;;;;;1.85;1.50;;;17.00;80.10;;;;;;5059204;28;20036;-78
2021/08/22 02:56:32;;;;;;;2.53;1.65;;;16.90;79.80;;;;;;5067058;28;20029;-78
2021/08/22 02:58:58;;;;;;;3.72;2.03;;;17.00;80.00;;;;;;5078048;28;20040;-79
2021/08/22 03:01:24;;;;;;;2.20;1.60;;;16.90;80.10;;;;;;5075781;28;20071;-79
2021/08/22 03:03:49;;;;;;;3.38;1.55;;;16.90;79.90;;;;;;5058946;28;20049;-78
2021/08/22 03:06:15;;;;;;;2.20;1.42;;;16.90;79.80;;;;;;5058978;28;20025;-79
2021/08/22 03:08:40;;;;;;;2.38;1.60;;;16.90;79.70;;;;;;5058844;28;20514;-78
2021/08/22 03:11:07;;;;;;;2.17;1.60;;;16.80;79.80;;;;;;5059015;28;20801;-78
2021/08/22 03:13:32;;;;;;;2.72;1.73;;;16.80;79.90;;;;;;5058940;28;20033;-79
2021/08/22 03:15:58;;;;;;;2.35;1.55;;;16.80;79.90;;;;;;5057669;28;20044;-79
2021/08/22 03:18:23;;;;;;;1.50;1.40;;;16.80;80.00;;;;;;5058773;28;20025;-79
2021/08/22 03:20:49;;;;;;;2.75;1.50;;;16.70;80.00;;;;;;5058642;28;20025;-79
2021/08/22 03:23:15;;;;;;;2.17;1.70;;;16.70;80.10;;;;;;5058359;28;20017;-78
2021/08/22 03:25:40;;;;;;;2.42;1.50;;;16.70;80.00;;;;;;5058922;28;20025;-79
2021/08/22 03:28:06;;;;;;;2.75;1.70;;;16.60;79.90;;;;;;5058520;28;20464;-78
2021/08/22 03:30:31;;;;;;;3.25;1.50;;;16.60;80.00;;;;;;5064083;28;20021;-78
2021/08/22 03:33:02;;;;;;;1.77;1.60;;;16.60;80.20;;;;;;5078317;28;20040;-79
2021/08/22 03:35:27;;;;;;;;;;;16.60;80.00;;;;;;5071084;28;20040;-78
2021/08/22 03:37:53;;;;;;;2.60;1.48;;;16.60;80.00;;;;;;5058328;28;20004;-78
2021/08/22 03:40:19;;;;;;;1.83;1.40;;;16.60;79.80;;;;;;5061635;28;20028;-78
2021/08/22 03:42:44;;;;;;;2.00;1.50;;;16.60;79.80;;;;;;5078252;28;20020;-78
2021/08/22 03:45:10;;;;;;;2.30;1.70;;;16.60;79.80;;;;;;5078142;28;20024;-78
2021/08/22 03:47:36;;;;;;;2.17;1.48;;;16.50;79.80;;;;;;5076679;28;20063;-79
2021/08/22 03:50:04;;;;;;;2.78;1.50;;;16.50;79.70;;;;;;5078099;28;20027;-78
2021/08/22 03:52:30;;;;;;;2.30;1.70;;;16.40;80.00;;;;;;5078213;28;20063;-79
2021/08/22 03:54:56;;;;;;;2.60;1.52;;;16.50;79.80;;;;;;5078122;28;20063;-78
2021/08/22 03:57:21;;;;;;;1.85;1.35;;;16.40;79.90;;;;;;5064132;28;20036;-78
2021/08/22 03:59:47;;;;;;;2.60;1.50;;;16.30;80.10;;;;;;5056825;28;20033;-78
2021/08/22 04:02:13;;;;;;;1.77;1.30;;;16.20;80.40;;;;;;5057822;28;20533;-78
2021/08/22 04:04:38;;;;;;;2.53;1.60;;;16.20;80.40;;;;;;5056520;28;20567;-78
2021/08/22 04:07:13;;;;;;;2.65;1.67;;;16.20;80.40;;;;;;5057688;28;20419;-78
2021/08/22 04:09:39;;;;;;;2.20;2.00;;;16.20;80.70;;;;;;5057813;28;20096;-78
2021/08/22 04:12:05;;;;;;;2.38;1.45;;;16.10;80.80;;;;;;5057588;28;20067;-78
2021/08/22 04:14:30;;;;;;;2.13;1.42;;;16.00;80.90;;;;;;5057896;28;20029;-78
2021/08/22 04:16:56;;;;;;;1.88;1.63;;;15.90;81.40;;;;;;5057656;28;20039;-79
2021/08/22 04:19:22;;;;;;;2.33;1.70;;;16.00;81.50;;;;;;5057560;28;20067;-79
2021/08/22 04:21:48;;;;;;;1.75;1.25;;;16.00;81.20;;;;;;5075277;28;20033;-78
2021/08/22 04:24:14;;;;;;;3.47;1.60;;;16.10;80.90;;;;;;5077626;28;20081;-78
2021/08/22 04:26:40;;;;;;;2.90;1.63;;;16.10;80.50;;;;;;5067396;28;20029;-78
2021/08/22 04:29:08;;;;;;;2.35;1.80;;;16.20;80.60;;;;;;5057730;28;20033;-79
2021/08/22 04:31:33;;;;;;;2.47;1.30;;;16.20;80.40;;;;;;5057278;28;20028;-78
2021/08/22 04:33:59;;;;;;;2.20;1.50;;;16.20;80.30;;;;;;5056046;28;20028;-78
2021/08/22 04:36:24;;;;;;;1.75;1.38;;;16.20;80.30;;;;;;5072401;28;20040;-78
2021/08/22 04:38:50;;;;;;;1.70;1.40;;;16.10;80.20;;;;;;5077215;28;20379;-78
2021/08/22 04:41:22;;;;;;;2.45;1.50;;;16.00;80.30;;;;;;5077010;28;20032;-79
2021/08/22 04:43:51;;;;;;;2.15;1.67;;;16.00;80.50;;;;;;5077273;28;20059;-78
2021/08/22 04:46:17;;;;;;;2.28;1.40;;;16.00;80.50;;;;;;5060964;28;20124;-78
2021/08/22 04:48:43;;;;;;;2.45;1.60;;;16.00;80.80;;;;;;5057180;28;20048;-79
2021/08/22 04:51:08;;;;;;;1.95;1.60;;;16.00;80.70;;;;;;5056895;28;20048;-79
2021/08/22 04:53:34;;;;;;;3.05;1.58;;;16.00;80.70;;;;;;5056981;28;20097;-78
2021/08/22 04:56:00;;;;;;;2.92;1.52;;;15.90;81.00;;;;;;5057022;28;20042;-78
2021/08/22 04:58:28;;;;;;;1.65;1.48;;;15.90;81.30;;;;;;5056796;28;20029;-78
2021/08/22 05:00:54;;;;;;;2.20;1.70;;;15.90;81.10;;;;;;5057196;28;20074;-78
2021/08/22 05:03:19;;;;;;;2.10;1.50;;;16.00;80.90;;;;;;5056873;28;20438;-78
2021/08/22 05:05:45;;;;;;;1.98;1.38;;;16.00;80.70;;;;;;5056788;28;20104;-78
2021/08/22 05:08:10;;;;;;;1.98;1.63;;;16.10;80.70;;;;;;5072121;28;20028;-79
2021/08/22 05:10:36;;;;;;;2.33;1.60;;;16.10;80.70;;;;;;5055328;28;20075;-79
2021/08/22 05:13:02;;;;;;;2.03;1.52;;;16.00;80.70;;;;;;5056605;28;20909;-79
2021/08/22 05:15:28;;;;;;;2.05;1.30;;;16.00;80.60;;;;;;5055029;28;20104;-78
2021/08/22 05:17:53;;;;;;;2.28;1.55;;;16.00;80.50;;;;;;5056551;28;20082;-79
2021/08/22 05:20:20;;;;;;;1.90;1.50;;;16.00;80.50;;;;;;5056504;28;20062;-78
2021/08/22 05:22:46;;;;;;;3.05;1.50;;;15.90;80.80;;;;;;5056551;28;20021;-78
2021/08/22 05:25:11;;;;;;;2.45;1.40;;;15.90;80.90;;;;;;5056173;28;20040;-79
2021/08/22 05:27:37;;;;;;;2.80;1.60;;;15.80;81.20;;;;;;5056352;28;20472;-78
2021/08/22 05:30:04;;;;;;;2.22;1.38;;;15.80;81.10;;;;;;5070712;28;20029;-79
2021/08/22 05:32:29;;;;;;;2.70;1.50;;;15.80;81.30;;;;;;5056207;28;20021;-79
2021/08/22 05:34:55;;;;;;;1.92;1.25;;;15.90;81.10;;;;;;5056280;28;20550;-79
2021/08/22 05:37:21;;;;;;;1.88;1.38;;;16.00;80.80;;;;;;5071409;28;20032;-79
2021/08/22 05:39:48;;;;;;;2.53;1.45;;;16.00;80.70;;;;;;5055978;28;20029;-79
2021/08/22 05:42:14;;;;;;;1.70;1.30;;;16.00;80.60;;;;;;5075349;28;20020;-79
2021/08/22 05:44:40;;;;;;;1.42;1.27;;;16.10;80.70;;;;;;5075933;28;20048;-79
2021/08/22 05:47:05;;;;;;;2.17;1.50;;;16.10;80.50;;;;;;5069454;28;20118;-79
2021/08/22 05:49:31;;;;;;;2.53;1.42;;;16.20;80.30;;;;;;5063258;28;20111;-78
2021/08/22 05:51:57;;;;;;;2.28;1.48;;;16.20;80.40;;;;;;5055896;28;20024;-79
2021/08/22 05:54:23;;;;;;;1.83;1.27;;;16.20;80.30;;;;;;5055827;28;20437;-79
2021/08/22 05:56:48;;;;;;;2.55;1.70;;;16.30;80.20;;;;;;5055747;28;20031;-79
2021/08/22 05:59:14;;;;;;;1.40;1.25;;;16.30;80.00;;;;;;5055654;28;20180;-79
2021/08/22 06:01:40;;;;;;;2.38;1.35;;;16.30;80.10;;;;;;5054274;28;20037;-79
2021/08/22 06:04:05;;;;;;;2.10;1.38;;;16.10;80.60;;;;;;5052912;28;20028;-78
2021/08/22 06:06:31;;;;;;;2.15;1.48;;;16.20;80.80;;;;;;5070505;28;20032;-78
2021/08/22 06:08:56;;;;;;;1.60;1.40;;;16.30;80.70;;;;;;5059507;28;20020;-79
2021/08/22 06:11:22;;;;;;;1.65;1.40;;;16.30;80.60;;;;;;5074088;28;20032;-79
2021/08/22 06:13:48;;;;;;;3.22;1.45;;;16.30;80.40;;;;;;5074323;28;20455;-79
2021/08/22 06:16:13;;;;;;;2.65;1.50;;;16.40;80.00;;;;;;5074304;28;20040;-79
2021/08/22 06:18:39;;;;;;;2.78;1.48;;;16.50;79.80;;;;;;5074288;28;20028;-79
2021/08/22 06:21:05;;;;;;;2.30;1.42;;;16.60;79.60;;;;;;5075152;28;20107;-79
2021/08/22 06:23:30;;;;;;;1.60;1.23;;;16.70;79.60;;;;;;5073423;28;20024;-79
2021/08/22 06:25:56;;;;;;;2.85;1.60;;;16.80;79.40;;;;;;5075302;28;20043;-78
2021/08/22 06:28:21;;;;;;;1.88;1.33;;;16.80;79.50;;;;;;5069627;28;20047;-79
2021/08/22 06:30:47;;;;;;;2.35;1.23;;;16.80;79.90;;;;;;5055574;28;20032;-79
2021/08/22 06:33:13;;;;;;;1.92;1.33;;;16.90;79.70;;;;;;5054991;28;20044;-79
2021/08/22 06:35:39;;;;;;;3.00;1.55;;;16.90;79.70;;;;;;5054931;28;20017;-79
2021/08/22 06:38:04;;;;;;;3.80;1.50;;;16.90;79.70;;;;;;5055129;28;20040;-79
2021/08/22 06:40:30;;;;;;;1.63;1.33;;;17.00;79.80;;;;;;5073126;28;20095;-79
2021/08/22 06:42:56;;;;;;;3.10;1.55;;;17.10;79.40;;;;;;5073421;28;20017;-78
2021/08/22 06:45:22;;;;;;;1.95;1.30;;;17.20;79.20;;;;;;5055092;28;20037;-79
2021/08/22 06:47:52;;;;;;;1.30;0.95;;;17.20;79.10;;;;;;5054848;28;20044;-79
2021/08/22 06:50:18;;;;;;;2.40;1.17;;;17.40;78.70;;;;;;5054797;28;20040;-79
2021/08/22 06:52:43;;;;;;;1.48;1.00;;;17.50;78.40;;;;;;5055101;28;20092;-79
2021/08/22 06:55:10;;;;;;;1.65;1.00;;;17.60;78.20;;;;;;5055177;28;20048;-79
2021/08/22 06:57:35;;;;;;;2.38;1.25;;;17.60;77.80;;;;;;5053365;28;20021;-79
2021/08/22 07:00:01;;;;;;;1.42;1.10;;;17.70;77.90;;;;;;5054979;28;20028;-79
2021/08/22 07:02:27;;;;;;;2.20;1.13;;;17.80;77.60;;;;;;5054788;28;20044;-79
2021/08/22 07:04:52;;;;;;;1.63;1.30;;;17.90;77.40;;;;;;5054812;28;20068;-79
2021/08/22 07:07:18;;;;;;;2.17;0.90;;;18.00;76.90;;;;;;5054633;28;20700;-78
2021/08/22 07:09:44;;;;;;;1.38;0.98;;;18.10;76.50;;;;;;5053519;28;20036;-79
2021/08/22 07:12:09;;;;;;;2.33;0.95;;;18.10;77.20;;;;;;5054928;28;20024;-79
2021/08/22 07:14:35;;;;;;;1.20;0.90;;;18.30;76.70;;;;;;5054897;28;20125;-79
2021/08/22 07:17:01;;;;;;;2.05;1.00;;;18.40;76.30;;;;;;5054661;28;20051;-79
2021/08/22 07:19:28;;;;;;;2.58;1.20;;;18.60;75.60;;;;;;5053193;28;20029;-79
2021/08/22 07:21:54;;;;;;;2.05;0.80;;;18.90;75.00;;;;;;5054537;28;20028;-78
2021/08/22 07:24:20;;;;;;;2.80;1.17;;;19.20;74.00;;;;;;5054821;28;20024;-78
2021/08/22 07:26:46;;;;;;;1.33;0.98;;;19.30;74.10;;;;;;5069048;28;20467;-79
2021/08/22 07:29:11;;;;;;;1.85;0.82;;;19.30;74.10;;;;;;5053589;28;20037;-79
2021/08/22 07:31:37;;;;;;;1.48;0.70;;;19.40;73.80;;;;;;5054463;28;20056;-79
2021/08/22 07:34:02;;;;;;;1.67;1.08;;;19.10;73.60;;;;;;5055189;28;20060;-79
2021/08/22 07:36:28;;;;;;;1.88;1.05;;;19.10;74.60;;;;;;5058043;28;20035;-79
2021/08/22 07:38:54;;;;;;;2.15;0.90;;;19.20;74.50;;;;;;5058389;28;20495;-79
2021/08/22 07:41:19;;;;;;;1.40;0.93;;;19.20;74.40;;;;;;5070355;28;20398;-79
2021/08/22 07:43:45;;;;;;;1.67;0.95;;;19.20;74.30;;;;;;5078639;28;20526;-79
2021/08/22 07:46:11;;;;;;;1.67;0.93;;;19.30;74.40;;;;;;5076907;28;20522;-79
2021/08/22 07:48:36;;;;;;;2.35;1.10;;;19.30;74.50;;;;;;5078102;28;20111;-79
2021/08/22 07:51:02;;;;;;;1.70;0.75;;;19.50;74.20;;;;;;5066947;28;20032;-78
2021/08/22 07:53:28;;;;;;;1.73;0.95;;;19.60;73.70;;;;;;5058109;28;20107;-79
2021/08/22 07:55:54;;;;;;;1.92;1.33;;;19.70;73.40;;;;;;5058236;28;20078;-79
2021/08/22 07:58:20;;;;;;;1.00;0.70;;;19.80;73.00;;;;;;5056547;28;20029;-79
2021/08/22 08:00:46;;;;;;;1.48;0.63;;;19.90;72.10;;;;;;5056617;28;20560;-79
2021/08/22 08:03:12;;;;;;;1.60;0.90;;;19.90;72.40;;;;;;5056658;28;20089;-79
2021/08/22 08:05:38;;;;;;;1.98;0.70;;;20.10;72.20;;;;;;5057707;28;20028;-78
2021/08/22 08:08:04;;;;;;;1.40;0.70;;;20.20;72.20;;;;;;5057753;28;20040;-79
2021/08/22 08:10:30;;;;;;;1.60;0.75;;;20.30;71.80;;;;;;5072836;28;20503;-79
2021/08/22 08:12:55;;;;;;;1.88;0.70;;;20.30;71.40;;;;;;5077687;28;20056;-79
2021/08/22 08:15:21;;;;;;;0.93;0.60;;;20.40;71.10;;;;;;5077862;28;20028;-79
2021/08/22 08:17:47;;;;;;;1.80;0.88;;;20.80;70.40;;;;;;5070668;28;20021;-79
2021/08/22 08:20:13;;;;;;;1.92;0.90;;;20.90;70.10;;;;;;5057656;28;20029;-79
2021/08/22 08:22:39;;;;;;;1.63;0.80;;;21.00;69.90;;;;;;5057308;28;20033;-79
2021/08/22 08:25:05;;;;;;;1.30;0.55;;;21.10;69.40;;;;;;5057340;28;20028;-79
2021/08/22 08:27:31;;;;;;;1.27;0.73;;;21.10;68.40;;;;;;5057553;28;20021;-79
2021/08/22 08:29:56;;;;;;;1.83;0.65;;;21.30;69.20;;;;;;5071889;28;20166;-79
2021/08/22 08:32:22;;;;;;;1.33;0.65;;;21.50;68.20;;;;;;5072604;28;20044;-79
2021/08/22 08:34:48;;;;;;;2.35;0.85;;;21.60;67.50;;;;;;5072589;28;20040;-79
2021/08/22 08:37:14;;;;;;;1.30;0.60;;;22.00;67.20;;;;;;5055591;28;20513;-79
2021/08/22 08:39:40;;;;;;;1.08;0.50;;;22.10;67.20;;;;;;5057267;28;20039;-79
2021/08/22 08:42:21;;;;;;;1.55;0.60;;;22.30;66.70;;;;;;5075431;28;20064;-79
2021/08/22 08:44:47;;;;;;;1.48;0.70;;;22.30;65.80;;;;;;5065298;28;20115;-79
2021/08/22 08:47:15;;;;;;;1.02;0.60;;;23.10;63.50;;;;;;5056349;28;20049;-77
2021/08/22 08:49:59;;;;;;;1.73;0.50;;;23.60;61.90;;;;;;5056827;28;20028;-77
2021/08/22 08:52:27;;;;;;;0.80;0.47;;;24.60;59.30;;;;;;5057037;28;20029;-77
2021/08/22 08:55:04;;;;;;;1.17;0.47;;;24.70;58.30;;;;;;5056836;28;20066;-77
2021/08/22 08:57:34;;;;;;;1.52;0.68;;;24.90;57.40;;;;;;5056794;28;20025;-78
2021/08/22 08:59:59;;;;;;;1.05;0.50;;;24.50;57.70;;;;;;5056845;28;20458;-78
2021/08/22 09:02:25;;;;;;;1.05;0.50;;;24.40;59.70;;;;;;5056768;28;20065;-78
2021/08/22 09:05:09;;;;;;;1.00;0.40;;;24.40;59.30;;;;;;5072321;28;20052;-80
2021/08/22 09:08:01;;;;;;;0.55;0.35;;;24.20;59.00;;;;;;5056686;28;20052;-77
2021/08/22 09:10:45;;;;;;;1.27;0.50;;;24.40;59.20;;;;;;5057127;28;20506;-77
2021/08/22 09:13:39;;;;;;;2.10;0.50;;;25.30;56.80;;;;;;5075150;28;20547;-77
2021/08/22 09:16:42;;;;;;;1.10;0.40;;;25.20;55.40;;;;;;5075231;28;20048;-77
2021/08/22 09:19:46;;;;;;;1.15;0.45;;;25.00;56.40;;;;;;5074226;28;20368;-77
2021/08/22 09:22:36;;;;;;;1.02;0.50;;;25.00;56.10;;;;;;5072735;28;20376;-78
2021/08/22 09:25:20;;;;;;;1.17;0.40;;;24.70;56.70;;;;;;5056294;28;20032;-77
2021/08/22 09:28:10;;;;;;;0.85;0.40;;;24.60;56.70;;;;;;5056425;28;20021;-77
2021/08/22 09:31:13;;;;;;;0.70;0.30;;;24.80;56.90;;;;;;5056175;28;20443;-77
2021/08/22 09:34:00;;;;;;;1.08;0.30;;;25.40;55.40;;;;;;5055987;28;20025;-78
2021/08/22 09:36:25;;;;;;;0.75;0.30;;;25.40;56.20;;;;;;5055972;28;20029;-79
2021/08/22 09:39:28;;;;;;;0.70;0.30;;;25.10;56.30;;;;;;5056069;28;20025;-79
2021/08/22 09:42:12;;;;;;;1.13;0.35;;;25.30;55.20;;;;;;5071300;28;20469;-79
2021/08/22 09:44:46;;;;;;;1.17;0.40;;;25.40;54.60;;;;;;5076239;28;20479;-77
2021/08/22 09:47:30;;;;;;;0.82;0.30;;;25.40;53.70;;;;;;5060993;28;20041;-77
2021/08/22 09:50:31;;;;;;;1.70;0.40;;;25.20;55.20;;;;;;5054498;28;20021;-77
2021/08/22 09:53:19;;;;;;;0.50;0.20;;;24.80;55.90;;;;;;5055679;28;20051;-77
2021/08/22 09:56:11;;;;;;;0.90;0.30;;;24.70;55.00;;;;;;5055689;28;20032;-77
2021/08/22 09:59:05;;;;;;;0.65;0.40;;;24.70;55.80;;;;;;5055452;28;20037;-76
2021/08/22 10:01:50;;;;;;;0.63;0.30;;;24.90;56.00;;;;;;5055476;28;20108;-77
2021/08/22 10:04:31;;;;;;;2.15;0.43;;;25.10;55.30;;;;;;5055715;28;20021;-77
2021/08/22 10:07:34;;;;;;;0.50;0.20;;;25.30;55.70;;;;;;5055706;28;20017;-77
2021/08/22 10:10:02;;;;;;;0.85;0.30;;;25.30;55.00;;;;;;5055235;28;20029;-77
2021/08/22 10:12:28;;;;;;;0.90;0.38;;;25.30;54.00;;;;;;5055478;28;20107;-77
2021/08/22 10:14:54;;;;;;;0.63;0.20;;;25.50;54.20;;;;;;5069971;28;20063;-77
2021/08/22 10:17:25;;;;;;;0.65;0.30;;;25.70;53.50;;;;;;5055633;28;20032;-77
2021/08/22 10:19:52;;;;;;;0.60;0.20;;;25.70;51.40;;;;;;5054111;28;20033;-77
2021/08/22 10:22:19;;;;;;;0.50;0.20;;;25.70;52.00;;;;;;5069500;28;20082;-78
2021/08/22 10:24:46;;;;;;;0.60;0.32;;;25.80;52.50;;;;;;5055181;28;20050;-77
2021/08/22 10:27:34;;;;;;;0.65;0.28;;;25.70;51.80;;;;;;5055340;28;20021;-77
2021/08/22 10:30:03;;;;;;;0.53;0.17;;;26.10;51.80;;;;;;5055101;28;20025;-77
2021/08/22 10:32:30;;;;;;;0.98;0.25;;;26.30;50.60;;;;;;5055259;28;20036;-78
2021/08/22 10:35:11;;;;;;;0.85;0.30;;;26.30;50.60;;;;;;5055026;28;20036;-77
2021/08/22 10:37:44;;;;;;;0.93;0.30;;;26.30;51.20;;;;;;5069669;28;20037;-78
2021/08/22 10:40:24;;;;;;;0.55;0.30;;;26.40;51.60;;;;;;5054777;28;20551;-77
2021/08/22 10:43:05;;;;;;;0.40;0.20;;;26.30;49.50;;;;;;5055113;28;20167;-78
2021/08/22 10:45:40;;;;;;;0.93;0.32;;;26.00;50.60;;;;;;5054976;28;20078;-77
2021/08/22 10:48:10;;;;;;;0.70;0.30;;;25.80;51.10;;;;;;5054948;28;20107;-77
2021/08/22 10:50:54;;;;;;;;;;;25.80;51.60;;;;;;5070211;28;20056;-77
2021/08/22 10:53:31;;;;;;;0.80;0.30;;;25.80;51.30;;;;;;5073731;28;19951;-77
2021/08/22 10:55:57;;;;;;;0.60;0.20;;;25.90;52.40;;;;;;5074965;28;20025;-77
2021/08/22 10:58:55;;;;;;;0.50;0.30;;;25.70;52.10;;;;;;5068069;28;20106;-77
2021/08/22 11:01:21;;;;;;;1.17;0.43;;;25.80;51.80;;;;;;5047387;28;20049;-77
2021/08/22 11:04:11;;;;;;;0.65;0.20;;;25.80;51.90;;;;;;5054639;28;20025;-77
2021/08/22 11:06:51;;;;;;;0.60;0.20;;;26.10;53.20;;;;;;5055037;28;20017;-78
2021/08/22 11:09:36;;;;;;;0.63;0.30;;;26.00;52.40;;;;;;5055921;28;20029;-77
2021/08/22 11:12:02;;;;;;;0.73;0.30;;;26.20;50.00;;;;;;5058781;28;20032;-77
2021/08/22 11:14:27;;;;;;;0.40;0.20;;;26.30;50.30;;;;;;5077076;28;20035;-77
2021/08/22 11:16:57;;;;;;;0.38;0.20;;;26.00;49.80;;;;;;5078708;28;20036;-77
2021/08/22 11:19:22;;;;;;;1.27;0.30;;;25.80;51.20;;;;;;5078792;28;20067;-77
2021/08/22 11:21:49;;;;;;;0.65;0.20;;;25.70;51.10;;;;;;5078651;28;20036;-77
2021/08/22 11:24:16;;;;;;;0.88;0.40;;;25.70;50.20;;;;;;5060123;28;20025;-77
2021/08/22 11:26:42;;;;;;;0.52;0.20;;;25.50;50.00;;;;;;5058616;28;20028;-77
2021/08/22 11:29:08;;;;;;;0.40;0.20;;;25.20;51.50;;;;;;5057308;28;20021;-77
2021/08/22 11:31:35;;;;;;;0.57;0.28;;;25.10;52.60;;;;;;5058560;28;20109;-79
2021/08/22 11:34:15;;;;;;;0.43;0.20;;;25.10;53.20;;;;;;5065671;28;20108;-79
2021/08/22 11:36:42;;;;;;;0.43;0.20;;;25.10;52.90;;;;;;5062894;28;20032;-79
2021/08/22 11:39:13;;;;;;;0.55;0.28;;;25.30;53.00;;;;;;5064900;28;20502;-79
2021/08/22 11:41:44;;;;;;;0.40;0.20;;;25.90;52.10;;;;;;5078093;28;20031;-77
2021/08/22 11:44:10;;;;;;;0.70;0.30;;;26.40;49.10;;;;;;5078434;28;20021;-77
2021/08/22 11:46:37;;;;;;;0.50;0.20;;;26.30;49.30;;;;;;5078319;28;20410;-77
2021/08/22 11:49:02;;;;;;;1.13;0.30;;;26.30;49.20;;;;;;5069921;28;20028;-77
2021/08/22 11:51:29;;;;;;;0.28;0.10;;;26.00;48.20;;;;;;5058159;28;20419;-77
2021/08/22 11:53:56;;;;;;;0.63;0.20;;;25.80;50.30;;;;;;5056589;28;20039;-77
2021/08/22 11:56:25;;;;;;;0.60;0.25;;;25.50;49.60;;;;;;5056801;28;20752;-77
2021/08/22 11:58:51;;;;;;;0.60;0.30;;;25.70;50.10;;;;;;5057978;28;20431;-77
2021/08/22 12:01:21;;;;;;;0.60;0.20;;;25.80;49.10;;;;;;5057918;28;20033;-77
2021/08/22 12:04:01;;;;;;;0.30;0.10;;;25.80;48.80;;;;;;5061867;28;20099;-77
2021/08/22 12:06:28;;;;;;;0.35;0.15;;;25.80;49.10;;;;;;5076529;28;20048;-77
2021/08/22 12:08:54;;;;;;;0.57;0.20;;;25.40;51.10;;;;;;5077942;28;20105;-77
2021/08/22 12:11:23;;;;;;;0.32;0.17;;;25.20;49.80;;;;;;5066687;28;20053;-79
2021/08/22 12:13:50;;;;;;;0.60;0.30;;;24.80;50.30;;;;;;5065320;28;20031;-79
2021/08/22 12:16:27;;;;;;;0.68;0.20;;;24.70;51.20;;;;;;5057803;28;20056;-78
2021/08/22 12:18:54;;;;;;;0.38;0.20;;;24.70;51.70;;;;;;5073513;28;20024;-79
2021/08/22 12:21:21;;;;;;;0.70;0.20;;;24.80;51.40;;;;;;5076665;28;20479;-78
2021/08/22 12:23:53;;;;;;;0.68;0.20;;;24.90;51.70;;;;;;5077588;28;20020;-79
2021/08/22 12:26:30;;;;;;;0.40;0.20;;;25.20;51.80;;;;;;5077062;28;20107;-77
2021/08/22 12:28:57;;;;;;;0.75;0.22;;;25.30;52.20;;;;;;5077449;28;20074;-77
2021/08/22 12:31:52;;;;;;;0.93;0.25;;;25.40;51.00;;;;;;5076257;28;20032;-77
2021/08/22 12:34:19;;;;;;;0.57;0.10;;;25.80;48.10;;;;;;5068000;28;20052;-77
2021/08/22 12:36:46;;;;;;;0.73;0.20;;;25.90;50.50;;;;;;5057357;28;20024;-77
2021/08/22 12:39:15;;;;;;;0.73;0.22;;;26.10;49.50;;;;;;5057346;28;20033;-77
2021/08/22 12:41:48;;;;;;;0.60;0.20;;;25.90;49.80;;;;;;5071923;28;20064;-77
2021/08/22 12:44:26;;;;;;;0.55;0.20;;;25.50;48.90;;;;;;5058655;28;20404;-77
2021/08/22 12:46:55;;;;;;;0.20;0.10;;;25.10;51.00;;;;;;5057064;28;20068;-77
2021/08/22 12:49:22;;;;;;;0.50;0.10;;;24.80;48.90;;;;;;5057131;28;20446;-77
2021/08/22 12:51:59;;;;;;;0.95;0.35;;;24.60;50.90;;;;;;5064661;28;20083;-77
2021/08/22 12:54:28;;;;;;;0.57;0.10;;;24.50;50.10;;;;;;5077147;28;20048;-79
2021/08/22 12:56:55;;;;;;;0.35;0.10;;;24.50;50.90;;;;;;5077049;28;20025;-78
2021/08/22 12:59:21;;;;;;;0.55;0.20;;;24.50;50.10;;;;;;5063549;28;20091;-77
2021/08/22 13:01:48;;;;;;;0.80;0.25;;;24.50;50.20;;;;;;5056674;28;20104;-77